Time;durP1;ratioP1;P1;durP2;ratioP2;P2;SDS_P1;SDS_P2;PMS_P1;PMS_P2;Temp;Humidity;BMP_temperature;BMP_pressure;BME280_temperature;BME280_humidity;BME280_pressure;Samples;Min_cycle;Max_cycle;Signal;HPM_P1;HPM_P2
2022/05/26 00:01:19;;;;;;;0.40;0.40;;;14.20;99.90;;;;;;5010691;28;20433;-86
2022/05/26 00:03:46;;;;;;;0.10;0.10;;;14.20;99.90;;;;;;5009341;28;20081;-87
2022/05/26 00:06:15;;;;;;;4.22;1.35;;;14.30;99.90;;;;;;5010812;28;20610;-86
2022/05/26 00:08:42;;;;;;;0.20;0.20;;;14.30;99.90;;;;;;5010412;28;20045;-87
2022/05/26 00:11:15;;;;;;;0.68;0.68;;;14.30;99.90;;;;;;5010439;28;20419;-86
2022/05/26 00:13:41;;;;;;;0.60;0.60;;;14.20;99.90;;;;;;5025672;28;20129;-90
2022/05/26 00:16:09;;;;;;;1.02;0.47;;;14.20;99.90;;;;;;5025204;28;20441;-89
2022/05/26 00:18:35;;;;;;;0.13;0.13;;;14.10;99.90;;;;;;5023018;28;20132;-89
2022/05/26 00:21:02;;;;;;;0.30;0.30;;;14.10;99.90;;;;;;5025469;28;20373;-88
2022/05/26 00:23:27;;;;;;;0.35;0.35;;;14.00;99.90;;;;;;5025552;28;20396;-89
2022/05/26 00:25:53;;;;;;;0.45;0.45;;;13.90;99.90;;;;;;5025890;28;20029;-89
2022/05/26 00:28:19;;;;;;;0.30;0.30;;;13.90;99.90;;;;;;5025548;28;20033;-88
2022/05/26 00:30:45;;;;;;;1.20;1.17;;;13.80;99.90;;;;;;5010701;28;20064;-89
2022/05/26 00:33:12;;;;;;;0.20;0.20;;;13.80;99.90;;;;;;5012510;28;20541;-89
2022/05/26 00:35:40;;;;;;;0.00;0.00;;;13.70;99.90;;;;;;5023765;28;20510;-89
2022/05/26 00:38:12;;;;;;;1.42;1.25;;;13.70;99.90;;;;;;5008471;28;20071;-89
2022/05/26 00:40:38;;;;;;;1.30;0.63;;;13.60;99.90;;;;;;5026302;28;20045;-88
2022/05/26 00:43:05;;;;;;;0.32;0.32;;;13.70;99.90;;;;;;5014183;28;20046;-89
2022/05/26 00:46:09;;;;;;;1.27;1.17;;;13.60;99.90;;;;;;5029115;28;20042;-89
2022/05/26 00:48:47;;;;;;;0.20;0.20;;;13.60;99.90;;;;;;5046457;28;20455;-89
2022/05/26 00:51:15;;;;;;;1.20;0.52;;;13.70;99.90;;;;;;5028436;28;20502;-88
2022/05/26 00:53:51;;;;;;;0.00;0.00;;;13.70;99.90;;;;;;5046262;28;20073;-89
2022/05/26 00:56:32;;;;;;;0.10;0.10;;;13.60;99.90;;;;;;5029223;28;20052;-88
2022/05/26 00:59:06;;;;;;;0.60;0.57;;;13.60;99.90;;;;;;5027905;28;20045;-88
2022/05/26 01:01:32;;;;;;;0.30;0.30;;;13.70;99.90;;;;;;5012082;28;20474;-89
2022/05/26 01:04:05;;;;;;;0.30;0.30;;;13.70;99.90;;;;;;5011767;28;20049;-84
2022/05/26 01:06:42;;;;;;;0.10;0.10;;;13.60;99.90;;;;;;5013712;28;21433;-84
2022/05/26 01:09:08;;;;;;;1.27;1.17;;;13.70;99.90;;;;;;5028118;28;20511;-84
2022/05/26 01:11:37;;;;;;;0.20;0.20;;;13.70;99.90;;;;;;5026522;28;20034;-84
2022/05/26 01:14:10;;;;;;;0.73;0.73;;;13.70;99.90;;;;;;5026690;28;20057;-84
2022/05/26 01:17:00;;;;;;;5.95;2.67;;;13.70;99.90;;;;;;5027584;28;20499;-83
2022/05/26 01:19:51;;;;;;;1.90;0.98;;;13.70;99.90;;;;;;5030646;28;20372;-83
2022/05/26 01:22:22;;;;;;;0.25;0.25;;;13.70;99.90;;;;;;5029302;28;20037;-83
2022/05/26 01:25:25;;;;;;;5.18;1.90;;;13.70;99.90;;;;;;5011952;28;20079;-82
2022/05/26 01:28:21;;;;;;;0.10;0.10;;;13.70;99.90;;;;;;5028894;28;20048;-83
2022/05/26 01:31:16;;;;;;;0.05;0.05;;;13.70;99.90;;;;;;5027506;28;20049;-82
2022/05/26 01:34:10;;;;;;;2.70;1.23;;;13.70;99.90;;;;;;5013087;28;20091;-83
2022/05/26 01:36:41;;;;;;;0.43;0.43;;;13.70;99.90;;;;;;5010914;28;20045;-84
2022/05/26 01:39:21;;;;;;;0.10;0.10;;;13.70;99.90;;;;;;5027638;28;20091;-84
2022/05/26 01:42:02;;;;;;;0.10;0.10;;;13.70;99.90;;;;;;5025836;28;20403;-83
2022/05/26 01:44:46;;;;;;;1.35;1.00;;;13.70;99.90;;;;;;5027378;28;20734;-84
2022/05/26 01:47:30;;;;;;;0.00;0.00;;;13.70;99.90;;;;;;5027274;28;20061;-84
2022/05/26 01:50:03;;;;;;;0.00;0.00;;;13.70;99.90;;;;;;5027891;28;20048;-84
2022/05/26 01:52:40;;;;;;;0.30;0.30;;;13.70;99.90;;;;;;5027765;28;20045;-89
2022/05/26 01:55:15;;;;;;;0.10;0.10;;;13.70;99.90;;;;;;5026073;28;20049;-89
2022/05/26 01:57:47;;;;;;;8.20;1.55;;;13.70;99.90;;;;;;5010012;28;20067;-89
2022/05/26 02:00:16;;;;;;;0.17;0.17;;;13.70;99.90;;;;;;5010536;28;20503;-89
2022/05/26 02:03:06;;;;;;;0.00;0.00;;;13.70;99.90;;;;;;5041336;28;20495;-89
2022/05/26 02:05:42;;;;;;;0.38;0.38;;;13.60;99.90;;;;;;5010893;28;20201;-89
2022/05/26 02:08:12;;;;;;;0.35;0.35;;;13.60;99.90;;;;;;5026303;28;20468;-89
2022/05/26 02:10:51;;;;;;;0.30;0.30;;;13.60;99.90;;;;;;5027841;28;20052;-90
2022/05/26 02:13:22;;;;;;;1.85;0.47;;;13.50;99.90;;;;;;5010289;28;20100;-89
2022/05/26 02:15:57;;;;;;;0.45;0.20;;;13.60;99.90;;;;;;5027935;28;20049;-88
2022/05/26 02:18:27;;;;;;;1.63;0.52;;;13.60;99.90;;;;;;5026925;28;20454;-89
2022/05/26 02:21:05;;;;;;;0.13;0.13;;;13.60;99.90;;;;;;5012717;28;20037;-89
2022/05/26 02:23:36;;;;;;;0.43;0.43;;;13.50;99.90;;;;;;5028181;28;20042;-89
2022/05/26 02:26:04;;;;;;;1.38;1.27;;;13.50;99.90;;;;;;5011360;28;20041;-84
2022/05/26 02:29:51;;;;;;;9.77;1.65;;;13.50;99.90;;;;;;5012624;28;20048;-84
2022/05/26 02:31:24;;;;;;;0.40;0.40;;;13.40;99.90;;;;;;5029260;28;20430;-83
2022/05/26 02:33:56;;;;;;;0.15;0.15;;;13.40;99.90;;;;;;5025965;28;20395;-84
2022/05/26 02:36:24;;;;;;;0.43;0.43;;;13.40;99.90;;;;;;5026371;28;20362;-85
2022/05/26 02:38:53;;;;;;;0.15;0.15;;;13.30;99.90;;;;;;5025501;28;20388;-84
2022/05/26 02:41:19;;;;;;;0.73;0.73;;;13.30;99.90;;;;;;5025990;28;20052;-84
2022/05/26 02:43:48;;;;;;;1.65;1.30;;;13.30;99.90;;;;;;5010254;28;20063;-84
2022/05/26 02:46:55;;;;;;;0.10;0.10;;;13.30;99.90;;;;;;5026024;28;20428;-84
2022/05/26 02:50:08;;;;;;;0.20;0.20;;;13.30;99.90;;;;;;4998578;22;20085;-87
2022/05/26 02:52:41;;;;;;;0.10;0.10;;;13.30;99.90;;;;;;4966449;28;20447;-93
2022/05/26 02:55:16;;;;;;;0.15;0.15;;;13.30;99.90;;;;;;5010919;28;20069;-93
2022/05/26 02:58:11;;;;;;;0.10;0.10;;;13.30;99.90;;;;;;5032758;28;20044;-93
2022/05/26 03:00:48;;;;;;;0.45;0.45;;;13.30;99.90;;;;;;5015769;28;20480;-88
2022/05/26 03:03:33;;;;;;;0.05;0.05;;;13.20;99.90;;;;;;5025569;28;20165;-87
2022/05/26 03:06:15;;;;;;;1.98;1.65;;;13.20;99.90;;;;;;5008084;28;20038;-88
2022/05/26 03:08:43;;;;;;;0.10;0.10;;;13.10;99.90;;;;;;4998794;28;20480;-88
2022/05/26 03:11:12;;;;;;;0.17;0.17;;;13.00;99.90;;;;;;5011506;28;20065;-87
2022/05/26 03:13:38;;;;;;;0.00;0.00;;;13.00;99.90;;;;;;5039779;28;20042;-88
2022/05/26 03:16:05;;;;;;;0.00;0.00;;;12.90;99.90;;;;;;5027479;28;20046;-89
2022/05/26 03:18:31;;;;;;;0.00;0.00;;;12.80;99.90;;;;;;5006015;28;20045;-88
2022/05/26 03:20:59;;;;;;;0.00;0.00;;;12.70;99.90;;;;;;5012256;28;20112;-89
2022/05/26 03:23:25;;;;;;;1.25;0.82;;;12.60;99.90;;;;;;5024517;28;20103;-88
2022/05/26 03:25:50;;;;;;;0.10;0.10;;;12.50;99.90;;;;;;5003007;28;20045;-88
2022/05/26 03:28:16;;;;;;;0.00;0.00;;;12.50;99.90;;;;;;5005227;28;20046;-89
2022/05/26 03:30:42;;;;;;;0.00;0.00;;;12.40;99.90;;;;;;4981210;28;20511;-88
2022/05/26 03:33:07;;;;;;;0.17;0.17;;;12.90;99.90;;;;;;5007491;28;20160;-87
2022/05/26 03:41:02;;;;;;;0.30;0.20;;;12.10;99.90;;;;;;4997396;28;20041;-87
2022/05/26 03:43:37;;;;;;;0.10;0.10;;;12.20;99.90;;;;;;5007921;28;20045;-88
2022/05/26 03:46:04;;;;;;;0.10;0.10;;;12.20;99.90;;;;;;5014422;28;20045;-87
2022/05/26 03:48:29;;;;;;;0.00;0.00;;;12.20;99.90;;;;;;5013811;28;20758;-87
2022/05/26 03:50:55;;;;;;;0.63;0.63;;;12.30;99.90;;;;;;5007166;28;20064;-87
2022/05/26 03:53:21;;;;;;;0.10;0.10;;;12.30;99.90;;;;;;5010131;28;20073;-87
2022/05/26 03:55:47;;;;;;;0.57;0.40;;;12.30;99.90;;;;;;4994539;28;20161;-88
2022/05/26 03:58:12;;;;;;;0.20;0.20;;;12.50;99.90;;;;;;4979333;28;20049;-87
2022/05/26 04:00:39;;;;;;;0.00;0.00;;;12.40;99.90;;;;;;5007477;28;20092;-87
2022/05/26 04:03:07;;;;;;;0.00;0.00;;;12.40;99.90;;;;;;5008255;28;20046;-87
2022/05/26 04:05:33;;;;;;;0.30;0.30;;;12.60;99.90;;;;;;4991958;28;20034;-92
2022/05/26 04:07:58;;;;;;;0.38;0.38;;;12.50;99.90;;;;;;5019365;28;20041;-92
2022/05/26 04:10:24;;;;;;;0.10;0.10;;;12.50;99.90;;;;;;5017505;28;20120;-92
2022/05/26 04:12:50;;;;;;;0.00;0.00;;;12.50;99.90;;;;;;4997869;28;20042;-92
2022/05/26 04:15:17;;;;;;;0.00;0.00;;;12.50;99.90;;;;;;5007323;28;20551;-92
2022/05/26 04:17:43;;;;;;;0.00;0.00;;;12.50;99.90;;;;;;4997628;28;20037;-92
2022/05/26 04:20:12;;;;;;;0.10;0.10;;;12.40;99.90;;;;;;5000928;28;20795;-92
2022/05/26 04:22:38;;;;;;;0.00;0.00;;;12.50;99.90;;;;;;5005119;28;20129;-92
2022/05/26 04:25:05;;;;;;;0.60;0.30;;;12.50;99.90;;;;;;5014249;28;20073;-92
2022/05/26 04:27:33;;;;;;;0.00;0.00;;;12.50;99.90;;;;;;5013439;28;20045;-93
2022/05/26 04:30:01;;;;;;;0.03;0.03;;;12.50;99.90;;;;;;4997064;28;20049;-93
2022/05/26 04:32:26;;;;;;;0.00;0.00;;;12.50;99.90;;;;;;4997185;28;20091;-92
2022/05/26 04:34:53;;;;;;;2.08;0.35;;;12.50;99.90;;;;;;4980714;28;20484;-92
2022/05/26 04:37:20;;;;;;;0.00;0.00;;;12.50;99.90;;;;;;5010195;28;20045;-93
2022/05/26 04:39:46;;;;;;;0.03;0.03;;;12.50;99.90;;;;;;4998825;28;20125;-91
2022/05/26 04:42:12;;;;;;;0.52;0.20;;;12.50;99.90;;;;;;4997089;28;20731;-92
2022/05/26 04:44:42;;;;;;;0.20;0.10;;;12.40;99.90;;;;;;5026774;28;20072;-92
2022/05/26 04:47:08;;;;;;;0.00;0.00;;;12.50;99.90;;;;;;5012177;28;20034;-92
2022/05/26 04:49:37;;;;;;;0.00;0.00;;;12.50;99.90;;;;;;4985143;28;20054;-93
2022/05/26 04:52:07;;;;;;;0.00;0.00;;;12.50;99.90;;;;;;4997909;28;20095;-93
2022/05/26 04:54:35;;;;;;;1.75;0.57;;;12.60;99.90;;;;;;5044331;28;20392;-93
2022/05/26 04:57:01;;;;;;;0.10;0.10;;;12.60;99.90;;;;;;4992215;28;20049;-86
2022/05/26 04:59:27;;;;;;;0.05;0.05;;;12.70;99.90;;;;;;5021969;28;20053;-86
2022/05/26 05:01:53;;;;;;;0.05;0.05;;;12.80;99.90;;;;;;5008017;28;20037;-86
2022/05/26 05:04:25;;;;;;;0.00;0.00;;;12.90;99.90;;;;;;5009120;28;20132;-86
2022/05/26 05:06:55;;;;;;;0.00;0.00;;;13.00;99.90;;;;;;4991631;28;20041;-86
2022/05/26 05:09:21;;;;;;;0.43;0.43;;;13.10;99.90;;;;;;5008757;28;20061;-86
2022/05/26 05:11:48;;;;;;;0.30;0.30;;;13.10;99.90;;;;;;5009056;28;20120;-86
2022/05/26 05:14:14;;;;;;;0.10;0.10;;;13.20;99.90;;;;;;5010528;28;20034;-88
2022/05/26 05:16:43;;;;;;;0.00;0.00;;;13.40;99.90;;;;;;5028100;28;20030;-88
2022/05/26 05:19:11;;;;;;;0.10;0.10;;;13.50;99.90;;;;;;4995778;28;20104;-88
2022/05/26 05:21:45;;;;;;;0.38;0.38;;;13.60;99.90;;;;;;4995676;28;20104;-88
2022/05/26 05:24:23;;;;;;;0.00;0.00;;;13.80;99.90;;;;;;4994840;28;20045;-88
2022/05/26 05:26:52;;;;;;;0.03;0.03;;;14.20;99.90;;;;;;5011005;28;20038;-88
2022/05/26 05:29:22;;;;;;;0.00;0.00;;;14.70;99.90;;;;;;5032436;28;20786;-92
2022/05/26 05:31:56;;;;;;;0.00;0.00;;;15.20;99.90;;;;;;4999502;28;20084;-93
2022/05/26 05:34:35;;;;;;;0.00;0.00;;;15.60;99.90;;;;;;4999249;28;20484;-89
2022/05/26 05:37:01;;;;;;;0.22;0.22;;;16.00;99.90;;;;;;5031157;28;20034;-91
2022/05/26 05:39:27;;;;;;;2.85;0.45;;;16.10;99.90;;;;;;4999322;28;20038;-94
2022/05/26 05:41:55;;;;;;;0.32;0.32;;;16.40;99.90;;;;;;5031988;28;20054;-93
2022/05/26 05:44:21;;;;;;;0.10;0.10;;;16.60;99.90;;;;;;4999653;28;20038;-92
2022/05/26 05:46:53;;;;;;;0.10;0.10;;;17.00;99.90;;;;;;5013196;28;20041;-92
2022/05/26 05:49:24;;;;;;;0.80;0.47;;;17.00;99.90;;;;;;5035190;28;20045;-91
2022/05/26 05:51:51;;;;;;;2.72;0.95;;;17.40;99.90;;;;;;5018812;28;20104;-92
2022/05/26 05:54:18;;;;;;;0.13;0.10;;;17.70;99.90;;;;;;5035198;28;20120;-92
2022/05/26 05:56:44;;;;;;;0.00;0.00;;;18.00;99.90;;;;;;4980211;28;20044;-92
2022/05/26 05:59:10;;;;;;;0.65;0.52;;;18.00;99.90;;;;;;5000378;28;20109;-93
2022/05/26 06:01:36;;;;;;;0.00;0.00;;;18.20;99.90;;;;;;4982453;28;20050;-93
2022/05/26 06:04:02;;;;;;;0.05;0.05;;;18.30;99.90;;;;;;4981217;28;20561;-89
2022/05/26 06:06:35;;;;;;;0.00;0.00;;;18.50;99.90;;;;;;4997159;28;20123;-89
2022/05/26 06:09:00;;;;;;;0.10;0.10;;;19.00;99.90;;;;;;4998751;28;20033;-89
2022/05/26 06:11:26;;;;;;;0.00;0.00;;;19.10;99.90;;;;;;5000719;28;20048;-89
2022/05/26 06:13:53;;;;;;;0.65;0.65;;;19.30;99.90;;;;;;5017046;28;20045;-89
2022/05/26 06:16:18;;;;;;;0.10;0.10;;;19.40;99.90;;;;;;5015029;28;20488;-88
2022/05/26 06:18:45;;;;;;;0.10;0.10;;;19.50;99.90;;;;;;5021174;28;20132;-89
2022/05/26 06:21:11;;;;;;;0.22;0.22;;;19.50;99.90;;;;;;5016727;28;20033;-90
2022/05/26 06:23:37;;;;;;;0.00;0.00;;;19.80;99.90;;;;;;5013925;28;20096;-89
2022/05/26 06:26:03;;;;;;;0.10;0.10;;;19.70;99.90;;;;;;5017894;28;20038;-90
2022/05/26 06:31:13;;;;;;;1.70;0.82;;;19.50;99.90;;;;;;5020852;28;20105;-89
2022/05/26 06:39:10;;;;;;;0.20;0.17;;;18.40;99.90;;;;;;5007284;28;20052;-87
2022/05/26 06:44:21;;;;;;;0.00;0.00;;;18.00;99.90;;;;;;5022327;28;20128;-86
2022/05/26 06:46:46;;;;;;;0.00;0.00;;;17.90;99.90;;;;;;5024048;28;20168;-86
2022/05/26 06:49:12;;;;;;;0.00;0.00;;;17.60;99.90;;;;;;5023469;28;20488;-87
2022/05/26 06:51:39;;;;;;;0.00;0.00;;;17.40;99.90;;;;;;5024234;28;20045;-87
2022/05/26 06:54:06;;;;;;;0.00;0.00;;;17.20;99.90;;;;;;5021439;28;22197;-87
2022/05/26 06:56:31;;;;;;;0.00;0.00;;;17.10;99.90;;;;;;4991283;28;20080;-87
2022/05/26 06:58:57;;;;;;;0.10;0.10;;;17.10;99.90;;;;;;5007597;28;20073;-86
2022/05/26 07:01:26;;;;;;;0.40;0.32;;;17.20;99.90;;;;;;4992977;28;20042;-87
2022/05/26 07:03:51;;;;;;;0.03;0.03;;;17.20;99.90;;;;;;5022599;28;20439;-87
2022/05/26 07:06:21;;;;;;;0.00;0.00;;;17.60;99.90;;;;;;5011151;28;20034;-87
2022/05/26 07:08:48;;;;;;;0.35;0.28;;;17.90;99.90;;;;;;5039627;28;20125;-89
2022/05/26 07:11:14;;;;;;;0.30;0.30;;;18.50;99.90;;;;;;5019949;28;20038;-90
2022/05/26 07:13:40;;;;;;;0.50;0.50;;;18.90;99.90;;;;;;5010096;28;20124;-89
2022/05/26 07:16:07;;;;;;;0.08;0.05;;;19.20;99.90;;;;;;5001356;28;20113;-89
2022/05/26 07:18:33;;;;;;;1.13;0.10;;;18.80;99.90;;;;;;5017541;28;20053;-89
2022/05/26 07:21:03;;;;;;;0.10;0.10;;;18.50;99.90;;;;;;4990079;28;20061;-89
2022/05/26 07:23:29;;;;;;;0.13;0.13;;;18.50;99.90;;;;;;5014948;28;20057;-88
2022/05/26 07:25:55;;;;;;;0.05;0.05;;;18.10;99.90;;;;;;5029482;28;20033;-87
2022/05/26 07:28:23;;;;;;;0.00;0.00;;;18.00;99.90;;;;;;4998053;28;20045;-88
2022/05/26 07:30:52;;;;;;;0.00;0.00;;;17.90;99.90;;;;;;5025659;28;20050;-87
2022/05/26 07:33:19;;;;;;;0.00;0.00;;;17.60;99.90;;;;;;4999540;28;20048;-87
2022/05/26 07:35:46;;;;;;;0.00;0.00;;;17.60;99.90;;;;;;5013014;28;20042;-86
2022/05/26 07:43:44;;;;;;;0.00;0.00;;;17.50;99.90;;;;;;5041180;28;20054;-88
2022/05/26 07:46:10;;;;;;;0.10;0.10;;;17.70;99.90;;;;;;4999579;28;20432;-88
2022/05/26 07:48:36;;;;;;;0.00;0.00;;;18.00;99.90;;;;;;5026365;28;20083;-88
2022/05/26 07:51:02;;;;;;;0.00;0.00;;;18.10;99.90;;;;;;5025452;28;20053;-88
2022/05/26 07:53:28;;;;;;;0.00;0.00;;;18.30;99.90;;;;;;5023150;28;20046;-88
2022/05/26 07:55:54;;;;;;;0.00;0.00;;;18.50;99.90;;;;;;5014163;28;20034;-92
2022/05/26 07:58:20;;;;;;;0.35;0.35;;;18.50;99.90;;;;;;5009991;28;20514;-89
2022/05/26 08:00:46;;;;;;;0.13;0.13;;;18.20;99.90;;;;;;5045361;28;20044;-91
2022/05/26 08:03:12;;;;;;;0.28;0.28;;;18.10;99.90;;;;;;5012502;28;20042;-92
2022/05/26 08:05:39;;;;;;;0.00;0.00;;;18.00;99.90;;;;;;4996853;28;20493;-91
2022/05/26 08:08:06;;;;;;;0.05;0.05;;;18.20;99.90;;;;;;5022647;28;20041;-89
2022/05/26 08:10:32;;;;;;;0.10;0.10;;;18.40;99.90;;;;;;5012275;28;20042;-90
2022/05/26 08:12:57;;;;;;;0.00;0.00;;;18.60;99.90;;;;;;5020715;28;20048;-92
2022/05/26 08:15:23;;;;;;;0.00;0.00;;;19.30;99.90;;;;;;4979548;28;20476;-92
2022/05/26 08:17:49;;;;;;;0.15;0.13;;;20.20;99.90;;;;;;5012715;28;20523;-94
2022/05/26 08:20:15;;;;;;;0.10;0.10;;;21.10;99.90;;;;;;5012841;28;20034;-94
2022/05/26 08:22:40;;;;;;;0.00;0.00;;;21.10;99.60;;;;;;5046100;28;20518;-94
2022/05/26 08:25:06;;;;;;;0.00;0.00;;;20.80;99.90;;;;;;5029344;28;20546;-95
2022/05/26 08:27:32;;;;;;;0.90;0.35;;;20.70;99.90;;;;;;5012824;28;20558;-94
2022/05/26 08:29:59;;;;;;;0.20;0.17;;;20.30;99.70;;;;;;5012567;28;20088;-94
2022/05/26 08:32:25;;;;;;;0.35;0.35;;;20.40;98.80;;;;;;5012202;28;20053;-90
2022/05/26 08:35:00;;;;;;;0.20;0.20;;;20.40;98.40;;;;;;5010867;28;20042;-91
2022/05/26 08:37:26;;;;;;;0.10;0.10;;;20.50;98.40;;;;;;4996079;28;20388;-91
2022/05/26 08:39:52;;;;;;;1.98;0.25;;;21.50;97.80;;;;;;5028707;28;20037;-90
2022/05/26 08:42:23;;;;;;;0.10;0.10;;;22.40;98.00;;;;;;5044952;28;20392;-90
2022/05/26 08:44:49;;;;;;;0.00;0.00;;;22.70;95.60;;;;;;4995778;28;20056;-91
2022/05/26 08:47:18;;;;;;;0.00;0.00;;;22.70;95.80;;;;;;4995778;28;20042;-90
2022/05/26 08:49:57;;;;;;;0.00;0.00;;;22.60;95.20;;;;;;4995767;28;20088;-92
2022/05/26 08:52:32;;;;;;;0.00;0.00;;;22.70;94.90;;;;;;5045602;28;20111;-92
2022/05/26 08:55:06;;;;;;;4.63;0.75;;;23.20;92.50;;;;;;4995862;28;20042;-90
2022/05/26 08:57:46;;;;;;;2.30;0.80;;;23.40;91.80;;;;;;5012205;28;20049;-92
2022/05/26 09:00:17;;;;;;;0.00;0.00;;;23.60;91.10;;;;;;4996591;28;20041;-90
2022/05/26 09:02:43;;;;;;;0.32;0.30;;;24.30;91.60;;;;;;4997356;28;20077;-92
2022/05/26 09:05:20;;;;;;;0.17;0.15;;;24.90;89.50;;;;;;5015961;28;20053;-92
2022/05/26 09:14:06;;;;;;;0.10;0.10;;;25.40;83.50;;;;;;5024216;28;20084;-94
2022/05/26 09:16:39;;;;;;;0.55;0.55;;;25.50;84.50;;;;;;5029415;28;20548;-95
2022/05/26 09:19:18;;;;;;;0.20;0.20;;;25.60;82.50;;;;;;4981097;28;20483;-96
2022/05/26 09:21:51;;;;;;;19.65;0.95;;;25.40;81.90;;;;;;4981620;28;20388;-95
2022/05/26 09:24:17;;;;;;;0.00;0.00;;;25.30;82.90;;;;;;4964225;28;20046;-91
2022/05/26 09:26:51;;;;;;;0.20;0.10;;;24.90;76.70;;;;;;5012296;28;20034;-91
2022/05/26 09:29:22;;;;;;;0.20;0.20;;;25.60;76.50;;;;;;4980425;28;20038;-91
2022/05/26 09:31:49;;;;;;;0.00;0.00;;;26.10;76.70;;;;;;4980732;28;20043;-91
2022/05/26 09:34:14;;;;;;;0.80;0.80;;;26.10;75.60;;;;;;4979628;28;20038;-91
2022/05/26 09:37:00;;;;;;;0.03;0.03;;;26.60;73.80;;;;;;5028564;28;20093;-91
2022/05/26 09:39:34;;;;;;;;;;;27.10;71.30;;;;;;4979986;28;20443;-89
2022/05/26 09:42:02;;;;;;;0.57;0.38;;;27.70;70.40;;;;;;4995478;28;19921;-91
2022/05/26 09:44:48;;;;;;;0.00;0.00;;;27.10;72.90;;;;;;4979842;28;20049;-89
2022/05/26 09:47:53;;;;;;;0.10;0.10;;;26.70;72.90;;;;;;5011592;28;20042;-89
2022/05/26 09:50:31;;;;;;;0.08;0.08;;;25.90;72.50;;;;;;4998413;28;20054;-88
2022/05/26 09:52:57;;;;;;;0.00;0.00;;;24.70;74.80;;;;;;5010174;28;20050;-89
2022/05/26 09:55:24;;;;;;;0.00;0.00;;;23.90;77.90;;;;;;5014060;28;20069;-91
2022/05/26 09:58:04;;;;;;;0.00;0.00;;;22.90;78.20;;;;;;5014625;28;20049;-92
2022/05/26 10:00:44;;;;;;;0.00;0.00;;;22.40;81.50;;;;;;5047941;28;20064;-91
2022/05/26 10:03:36;;;;;;;0.00;0.00;;;21.90;82.80;;;;;;5045619;28;20496;-91
2022/05/26 10:06:01;;;;;;;0.00;0.00;;;21.70;85.40;;;;;;5013935;28;20034;-94
2022/05/26 10:08:53;;;;;;;0.43;0.43;;;22.40;87.80;;;;;;4997624;28;20038;-93
2022/05/26 10:11:37;;;;;;;0.00;0.00;;;21.20;88.20;;;;;;4986271;28;20385;-93
2022/05/26 10:14:31;;;;;;;0.35;0.25;;;21.20;88.90;;;;;;5013522;28;20038;-93
2022/05/26 10:17:13;;;;;;;1.25;0.70;;;21.40;89.80;;;;;;4998390;28;20125;-92
2022/05/26 10:19:54;;;;;;;0.00;0.00;;;22.80;87.20;;;;;;5010555;28;20038;-91
2022/05/26 10:22:42;;;;;;;0.08;0.08;;;23.70;85.40;;;;;;5008424;28;20042;-91
2022/05/26 10:25:40;;;;;;;0.03;0.03;;;24.60;84.90;;;;;;4997527;28;20057;-92
2022/05/26 10:28:14;;;;;;;0.10;0.10;;;24.80;80.60;;;;;;4988014;28;20125;-90
2022/05/26 10:31:03;;;;;;;0.00;0.00;;;25.30;78.70;;;;;;5028749;28;20053;-90
2022/05/26 10:33:43;;;;;;;0.15;0.13;;;24.60;80.90;;;;;;4995850;28;20655;-89
2022/05/26 10:36:47;;;;;;;0.20;0.20;;;24.70;81.20;;;;;;5014115;28;20046;-90
2022/05/26 10:39:15;;;;;;;0.00;0.00;;;25.00;81.30;;;;;;5014359;28;20048;-90
2022/05/26 10:41:59;;;;;;;0.00;0.00;;;25.30;81.40;;;;;;5013910;28;20038;-91
2022/05/26 10:44:36;;;;;;;1.48;0.82;;;23.90;80.00;;;;;;5014256;28;20073;-91
2022/05/26 10:47:21;;;;;;;0.00;0.00;;;23.30;82.80;;;;;;5014047;28;20369;-89
2022/05/26 10:50:08;;;;;;;0.30;0.30;;;23.50;83.70;;;;;;5013816;28;20488;-88
2022/05/26 10:52:38;;;;;;;0.00;0.00;;;24.80;80.00;;;;;;5013607;28;20583;-88
2022/05/26 10:55:19;;;;;;;0.10;0.10;;;25.20;79.10;;;;;;5013998;28;20038;-89
2022/05/26 10:58:17;;;;;;;0.00;0.00;;;25.80;78.70;;;;;;4997796;28;20042;-90
2022/05/26 11:00:48;;;;;;;0.90;0.90;;;24.60;77.70;;;;;;5013803;28;20041;-89
2022/05/26 11:03:26;;;;;;;0.73;0.65;;;25.00;79.50;;;;;;4997680;28;20041;-95
2022/05/26 11:06:06;;;;;;;0.43;0.43;;;25.70;79.50;;;;;;4998103;28;20395;-96
2022/05/26 11:08:38;;;;;;;0.00;0.00;;;25.50;79.10;;;;;;4997574;28;20037;-95
2022/05/26 11:11:14;;;;;;;0.10;0.10;;;25.80;80.70;;;;;;4997610;28;20129;-95
2022/05/26 11:13:54;;;;;;;0.00;0.00;;;25.80;80.00;;;;;;4997574;28;20124;-96
2022/05/26 11:19:28;;;;;;;0.10;0.10;;;24.00;83.30;;;;;;5014260;28;20078;-89
2022/05/26 11:21:54;;;;;;;0.05;0.05;;;23.50;84.70;;;;;;5013376;28;20042;-92
2022/05/26 11:24:23;;;;;;;0.10;0.10;;;23.30;86.00;;;;;;5013361;28;20194;-90
2022/05/26 11:27:15;;;;;;;0.10;0.10;;;23.80;85.40;;;;;;5013027;28;20052;-90
2022/05/26 11:29:47;;;;;;;0.00;0.00;;;24.40;82.90;;;;;;5005406;28;20046;-90
2022/05/26 11:38:31;;;;;;;0.38;0.38;;;23.50;82.70;;;;;;5029271;28;20092;-88
2022/05/26 11:41:05;;;;;;;0.08;0.08;;;23.40;84.20;;;;;;5013046;28;20100;-89
2022/05/26 11:43:59;;;;;;;0.00;0.00;;;23.70;83.30;;;;;;4996539;28;20092;-90
2022/05/26 11:46:46;;;;;;;0.10;0.10;;;23.60;82.60;;;;;;4996287;28;20133;-89
2022/05/26 11:49:44;;;;;;;1.05;0.63;;;23.90;83.70;;;;;;4996298;28;20157;-88
2022/05/26 11:52:24;;;;;;;0.05;0.05;;;24.50;83.40;;;;;;4996540;28;20508;-95
2022/05/26 11:54:58;;;;;;;0.08;0.08;;;23.40;83.70;;;;;;5013230;28;20037;-95
2022/05/26 11:57:36;;;;;;;0.10;0.10;;;23.10;84.50;;;;;;5013333;28;20369;-94
2022/05/26 12:00:40;;;;;;;0.10;0.10;;;22.50;86.10;;;;;;5013026;28;20034;-94
2022/05/26 12:03:22;;;;;;;0.03;0.03;;;21.90;90.10;;;;;;4993213;28;20043;-91
2022/05/26 12:06:06;;;;;;;0.20;0.20;;;21.60;89.70;;;;;;4976671;28;20477;-91
2022/05/26 12:08:57;;;;;;;0.22;0.22;;;21.10;91.30;;;;;;4993120;28;20104;-89
2022/05/26 12:12:02;;;;;;;0.57;0.55;;;21.30;91.50;;;;;;4976795;28;20038;-88
2022/05/26 12:14:54;;;;;;;0.00;0.00;;;21.40;92.00;;;;;;4996210;28;20037;-88
2022/05/26 12:17:34;;;;;;;0.05;0.05;;;21.70;91.30;;;;;;4990638;28;20049;-88
2022/05/26 12:20:12;;;;;;;0.30;0.30;;;21.50;91.00;;;;;;5012526;28;20034;-88
2022/05/26 12:23:01;;;;;;;0.13;0.13;;;21.10;91.30;;;;;;4996213;28;20080;-94
2022/05/26 12:25:39;;;;;;;1.10;1.00;;;20.90;92.20;;;;;;5029162;28;20045;-89
2022/05/26 12:28:13;;;;;;;0.00;0.00;;;20.50;93.10;;;;;;5012315;28;20045;-87
2022/05/26 12:30:45;;;;;;;0.00;0.00;;;20.40;93.20;;;;;;5031738;28;20050;-88
2022/05/26 12:33:33;;;;;;;0.10;0.10;;;20.30;93.50;;;;;;5009108;28;20081;-89
2022/05/26 12:36:27;;;;;;;0.00;0.00;;;20.20;93.70;;;;;;5009101;28;20050;-88
2022/05/26 12:39:14;;;;;;;2.50;0.32;;;20.10;94.30;;;;;;5009046;28;20042;-88
2022/05/26 12:41:58;;;;;;;0.10;0.10;;;20.20;94.90;;;;;;4992733;28;20038;-88
2022/05/26 12:45:01;;;;;;;0.00;0.00;;;20.40;94.00;;;;;;5008959;28;20051;-88
2022/05/26 12:47:46;;;;;;;0.20;0.20;;;20.70;94.10;;;;;;5008876;28;20526;-88
2022/05/26 12:50:18;;;;;;;0.10;0.10;;;21.00;93.10;;;;;;4992475;28;20488;-87
2022/05/26 12:52:57;;;;;;;0.20;0.10;;;20.80;93.00;;;;;;5003209;28;20066;-88
2022/05/26 12:55:51;;;;;;;0.10;0.10;;;20.60;93.00;;;;;;4996094;28;20115;-88
2022/05/26 12:58:32;;;;;;;0.10;0.10;;;20.60;93.90;;;;;;5012347;28;20046;-88
2022/05/26 13:00:59;;;;;;;0.00;0.00;;;20.30;93.50;;;;;;4995704;28;20041;-88
2022/05/26 13:03:44;;;;;;;0.28;0.28;;;20.30;93.20;;;;;;5010774;28;20046;-88
2022/05/26 13:06:30;;;;;;;0.00;0.00;;;20.10;93.70;;;;;;5037091;28;20124;-89
2022/05/26 13:09:28;;;;;;;0.00;0.00;;;20.20;94.70;;;;;;5011666;28;20104;-89
2022/05/26 13:11:57;;;;;;;0.00;0.00;;;20.20;94.80;;;;;;5011863;28;20511;-89
2022/05/26 13:14:33;;;;;;;4.20;0.93;;;20.10;95.60;;;;;;5011955;28;20451;-88
2022/05/26 13:17:10;;;;;;;0.08;0.08;;;20.20;94.30;;;;;;4995589;28;20041;-88
2022/05/26 13:19:49;;;;;;;0.00;0.00;;;20.40;94.10;;;;;;4995515;28;20172;-88
2022/05/26 13:22:30;;;;;;;0.00;0.00;;;20.50;94.90;;;;;;5012133;28;20052;-89
2022/05/26 13:25:04;;;;;;;0.00;0.00;;;20.60;94.60;;;;;;4995823;28;20037;-88
2022/05/26 13:28:00;;;;;;;0.03;0.03;;;20.60;93.60;;;;;;4995277;28;20088;-88
2022/05/26 13:33:26;;;;;;;0.00;0.00;;;20.40;93.60;;;;;;5028123;28;20058;-88
2022/05/26 13:36:02;;;;;;;0.00;0.00;;;20.40;93.90;;;;;;5011844;28;20052;-88
2022/05/26 13:38:34;;;;;;;0.00;0.00;;;20.20;94.10;;;;;;5011614;28;20049;-89
2022/05/26 13:41:03;;;;;;;0.10;0.10;;;20.30;94.80;;;;;;4995163;28;20048;-89
2022/05/26 13:43:32;;;;;;;0.08;0.08;;;20.30;94.80;;;;;;4995210;28;20107;-90
2022/05/26 13:45:58;;;;;;;0.88;0.82;;;20.10;95.30;;;;;;5011568;28;20080;-90
2022/05/26 13:48:35;;;;;;;0.03;0.03;;;20.30;95.60;;;;;;4996248;28;20045;-90
2022/05/26 13:51:12;;;;;;;0.17;0.17;;;20.30;96.00;;;;;;5015276;28;20113;-88
2022/05/26 13:53:40;;;;;;;0.00;0.00;;;20.50;96.20;;;;;;5015346;28;20443;-89
2022/05/26 13:56:07;;;;;;;0.00;0.00;;;20.60;96.20;;;;;;4999137;28;20040;-90
2022/05/26 13:58:35;;;;;;;8.50;0.75;;;20.30;95.70;;;;;;4998827;28;20128;-89
2022/05/26 14:01:07;;;;;;;0.30;0.30;;;19.70;96.60;;;;;;4998030;28;20038;-90